»·PEaware :: N16RD KSAN-KREI

N16RD :: KSAN-KREI

FLIGHT INFORMATION

Flight Status: Arrived
Operator: Privately registered:
United States
More flights under this callsign
Pilot: Brett B. (12105)
Aircraft: PIPER PA-38 TOMAHAWK
(PA38)
More flights by this aircraft type
Origin: KSAN San Diego Intl-Lindbergh
United States
Destination: KREI Redlands Mun
United States
More flights between these airports :: More routes between these airports
Route: KSAN KREI
File this flight plan on PilotEdge
Remarks:
Altitude:
(Current/Filed)
6,500ft
Speed:
(Current/Filed)
115kts
Departed: 18-Sep-17 07:54 PM
Arrived: 18-Sep-17 08:40 PM
Distance/Time
Traveled:
24nm/0:46
Distance/Time
To Go:
Arrived

Flight Plot

Page will automatically refresh every two minutes.

Flight plan parsing failed; only flown route is shown


Map Options




Map Legend


Flown Route
Filed Route
Departure Airport
Arrival Airport
Navaid (VOR, NDB)
Fix

Horizontal Profiles

Position Reports

Time Latitude Longitude Heading Altitude Ground
Speed
18-Sep-17 19:42 32.733117 -117.181012 15 18ft 0kts
18-Sep-17 19:43 32.733117 -117.181012 15 18ft 0kts
18-Sep-17 19:44 32.733117 -117.181012 15 18ft 0kts
18-Sep-17 19:45 32.733117 -117.181012 15 18ft 0kts
18-Sep-17 19:46 32.733117 -117.181012 15 18ft 0kts
18-Sep-17 19:47 32.733117 -117.181012 15 18ft 0kts
18-Sep-17 19:48 32.733117 -117.181012 15 18ft 0kts
18-Sep-17 19:49 32.733117 -117.181012 15 18ft 0kts
18-Sep-17 19:50 32.733117 -117.181012 15 18ft 0kts
18-Sep-17 19:51 32.733117 -117.181012 15 18ft 0kts
18-Sep-17 19:52 32.733117 -117.181012 15 18ft 0kts
18-Sep-17 19:53 32.733117 -117.181012 15 18ft 0kts
18-Sep-17 19:54 32.733129 -117.181150 219 18ft 4kts
18-Sep-17 19:55 32.732521 -117.180467 106 18ft 16kts
18-Sep-17 19:56 32.730828 -117.175328 184 18ft 0kts
18-Sep-17 19:57 32.730580 -117.177271 285 18ft 40kts
18-Sep-17 19:58 32.738393 -117.192685 316 638ft 67kts
18-Sep-17 19:59 32.755707 -117.206934 323 1239ft 83kts
18-Sep-17 20:00 32.774303 -117.221907 323 1731ft 91kts
18-Sep-17 20:01 32.796651 -117.240155 323 2014ft 107kts
18-Sep-17 20:02 32.821515 -117.260613 323 1999ft 109kts
18-Sep-17 20:03 32.846515 -117.281173 323 2000ft 109kts
18-Sep-17 20:04 32.874397 -117.296877 333 2000ft 112kts
18-Sep-17 20:05 32.901361 -117.301632 25 2428ft 95kts
18-Sep-17 20:06 32.928190 -117.286119 24 2505ft 118kts
18-Sep-17 20:07 32.959695 -117.287776 343 2499ft 118kts
18-Sep-17 20:08 32.991492 -117.297715 343 2498ft 118kts
18-Sep-17 20:09 33.023393 -117.307844 343 2497ft 118kts
18-Sep-17 20:10 33.055188 -117.317951 343 2498ft 118kts
18-Sep-17 20:11 33.087764 -117.318346 8 2499ft 119kts
18-Sep-17 20:12 33.118710 -117.312110 8 2808ft 107kts
18-Sep-17 20:13 33.147592 -117.306061 8 3196ft 104kts
18-Sep-17 20:14 33.176012 -117.300025 8 3591ft 103kts
18-Sep-17 20:15 33.204142 -117.293779 8 3987ft 102kts
18-Sep-17 20:16 33.232132 -117.287514 8 4383ft 101kts
18-Sep-17 20:17 33.261473 -117.280966 8 4499ft 115kts
18-Sep-17 20:18 33.293694 -117.273918 8 4493ft 118kts
18-Sep-17 20:19 33.326293 -117.266796 8 4493ft 118kts
18-Sep-17 20:20 33.358791 -117.259694 8 4500ft 118kts
18-Sep-17 20:21 33.391213 -117.252603 8 4501ft 118kts
18-Sep-17 20:22 33.423893 -117.245459 8 4494ft 119kts
18-Sep-17 20:23 33.456343 -117.238366 8 4493ft 117kts
18-Sep-17 20:24 33.487053 -117.231536 8 4706ft 104kts
18-Sep-17 20:25 33.513277 -117.225314 8 5156ft 95kts
18-Sep-17 20:26 33.538643 -117.219073 8 5624ft 90kts
18-Sep-17 20:27 33.568198 -117.211861 8 5504ft 120kts
18-Sep-17 20:28 33.598994 -117.204597 8 5710ft 106kts
18-Sep-17 20:29 33.627260 -117.197610 8 5996ft 102kts
18-Sep-17 20:30 33.654806 -117.190681 8 6287ft 99kts
18-Sep-17 20:31 33.681885 -117.183796 8 6531ft 102kts
18-Sep-17 20:32 33.711708 -117.176435 8 6523ft 113kts
18-Sep-17 20:33 33.742989 -117.168812 8 6520ft 115kts
18-Sep-17 20:34 33.774649 -117.161908 3 6409ft 123kts
18-Sep-17 20:35 33.811659 -117.157102 3 5730ft 138kts
18-Sep-17 20:36 33.850030 -117.152446 3 5035ft 138kts
18-Sep-17 20:37 33.888023 -117.148070 3 4493ft 132kts
18-Sep-17 20:38 33.924464 -117.144370 2 4031ft 138kts
18-Sep-17 20:39 33.951584 -117.141320 3 3581ft 144kts
18-Sep-17 20:40 33.989824 -117.138217 2 2858ft 134kts
18-Sep-17 20:41 34.023309 -117.134986 3 2877ft 123kts
18-Sep-17 20:42 34.059343 -117.131255 4 2311ft 131kts
18-Sep-17 20:43 34.085248 -117.135505 283 1761ft 77kts
18-Sep-17 20:44 34.084815 -117.148937 188 1574ft 9kts
18-Sep-17 20:45 34.084360 -117.148973 184 1574ft 0kts
18-Sep-17 20:46 34.084360 -117.148973 184 1574ft 0kts
18-Sep-17 20:47 34.084360 -117.148973 184 1574ft 0kts
18-Sep-17 20:48 34.084360 -117.148973 184 1574ft 0kts
18-Sep-17 20:49 34.084360 -117.148973 184 1574ft 0kts
18-Sep-17 20:50 34.084360 -117.148973 184 1574ft 0kts
18-Sep-17 20:51 34.084360 -117.148973 184 1574ft 0kts
18-Sep-17 20:52 34.084360 -117.148973 184 1574ft 0kts
18-Sep-17 20:53 34.084360 -117.148973 184 1574ft 0kts
18-Sep-17 20:54 34.084360 -117.148973 184 1574ft 0kts
18-Sep-17 20:55 34.084360 -117.148973 184 1574ft 0kts
18-Sep-17 20:56 34.084360 -117.148973 184 1574ft 0kts
18-Sep-17 20:57 34.084360 -117.148973 184 1574ft 0kts
18-Sep-17 20:58 33.128957 -117.283490 168 303ft 0kts
18-Sep-17 20:59 33.128957 -117.283490 168 303ft 0kts

Navigation Log

Ident Type
Flight plan parsing failed, navigation log unavailable